sensor_id;sensor_type;location;lat;lon;timestamp;P1;durP1;ratioP1;P2;durP2;ratioP2
14992;SDS011;7592;51.088;13.732;2023-08-17T00:00:11;9.80;;;8.90;;
14992;SDS011;7592;51.088;13.732;2023-08-17T00:05:06;9.87;;;9.17;;
14992;SDS011;7592;51.088;13.732;2023-08-17T00:09:59;10.17;;;9.37;;
14992;SDS011;7592;51.088;13.732;2023-08-17T00:14:51;10.57;;;9.73;;
14992;SDS011;7592;51.088;13.732;2023-08-17T00:19:44;10.80;;;9.77;;
14992;SDS011;7592;51.088;13.732;2023-08-17T00:24:36;9.83;;;9.03;;
14992;SDS011;7592;51.088;13.732;2023-08-17T00:29:28;10.07;;;9.27;;
14992;SDS011;7592;51.088;13.732;2023-08-17T00:34:21;10.30;;;9.47;;
14992;SDS011;7592;51.088;13.732;2023-08-17T00:39:13;9.77;;;8.97;;
14992;SDS011;7592;51.088;13.732;2023-08-17T00:44:06;11.30;;;10.27;;
14992;SDS011;7592;51.088;13.732;2023-08-17T00:48:58;10.23;;;9.37;;
14992;SDS011;7592;51.088;13.732;2023-08-17T00:53:50;11.80;;;10.70;;
14992;SDS011;7592;51.088;13.732;2023-08-17T00:58:44;9.80;;;9.00;;
14992;SDS011;7592;51.088;13.732;2023-08-17T01:03:36;11.57;;;10.57;;
14992;SDS011;7592;51.088;13.732;2023-08-17T01:15:36;10.67;;;9.87;;
14992;SDS011;7592;51.088;13.732;2023-08-17T01:20:32;10.77;;;9.67;;
14992;SDS011;7592;51.088;13.732;2023-08-17T01:25:25;9.97;;;9.07;;
14992;SDS011;7592;51.088;13.732;2023-08-17T01:30:17;10.40;;;9.60;;
14992;SDS011;7592;51.088;13.732;2023-08-17T01:35:20;11.07;;;9.97;;
14992;SDS011;7592;51.088;13.732;2023-08-17T01:40:19;10.90;;;10.10;;
14992;SDS011;7592;51.088;13.732;2023-08-17T01:45:12;9.80;;;8.90;;
14992;SDS011;7592;51.088;13.732;2023-08-17T01:50:07;11.17;;;10.10;;
14992;SDS011;7592;51.088;13.732;2023-08-17T01:55:00;13.60;;;12.30;;
14992;SDS011;7592;51.088;13.732;2023-08-17T01:59:52;10.83;;;10.00;;
14992;SDS011;7592;51.088;13.732;2023-08-17T02:04:44;12.07;;;10.97;;
14992;SDS011;7592;51.088;13.732;2023-08-17T02:09:36;12.47;;;11.23;;
14992;SDS011;7592;51.088;13.732;2023-08-17T02:14:29;12.10;;;11.20;;
14992;SDS011;7592;51.088;13.732;2023-08-17T02:19:21;12.37;;;11.17;;
14992;SDS011;7592;51.088;13.732;2023-08-17T02:24:14;12.00;;;11.00;;
14992;SDS011;7592;51.088;13.732;2023-08-17T02:29:06;10.23;;;9.43;;
14992;SDS011;7592;51.088;13.732;2023-08-17T02:33:58;10.17;;;9.37;;
14992;SDS011;7592;51.088;13.732;2023-08-17T02:38:56;10.30;;;9.50;;
14992;SDS011;7592;51.088;13.732;2023-08-17T02:43:48;8.70;;;8.07;;
14992;SDS011;7592;51.088;13.732;2023-08-17T02:48:40;9.03;;;8.20;;
14992;SDS011;7592;51.088;13.732;2023-08-17T02:53:32;8.37;;;7.77;;
14992;SDS011;7592;51.088;13.732;2023-08-17T02:58:24;9.60;;;8.90;;
14992;SDS011;7592;51.088;13.732;2023-08-17T03:03:17;8.57;;;8.03;;
14992;SDS011;7592;51.088;13.732;2023-08-17T03:08:09;8.53;;;7.80;;
14992;SDS011;7592;51.088;13.732;2023-08-17T03:13:01;10.10;;;9.30;;
14992;SDS011;7592;51.088;13.732;2023-08-17T03:17:54;8.47;;;7.77;;
14992;SDS011;7592;51.088;13.732;2023-08-17T03:22:46;8.97;;;8.20;;
14992;SDS011;7592;51.088;13.732;2023-08-17T03:27:39;8.93;;;8.23;;
14992;SDS011;7592;51.088;13.732;2023-08-17T03:32:31;9.00;;;8.07;;
14992;SDS011;7592;51.088;13.732;2023-08-17T03:37:23;7.77;;;7.13;;
14992;SDS011;7592;51.088;13.732;2023-08-17T03:42:15;8.07;;;7.47;;
14992;SDS011;7592;51.088;13.732;2023-08-17T03:47:08;7.77;;;7.13;;
14992;SDS011;7592;51.088;13.732;2023-08-17T03:52:00;8.60;;;7.90;;
14992;SDS011;7592;51.088;13.732;2023-08-17T03:56:53;9.43;;;8.63;;
14992;SDS011;7592;51.088;13.732;2023-08-17T04:01:45;7.97;;;7.27;;
14992;SDS011;7592;51.088;13.732;2023-08-17T04:06:38;8.77;;;8.07;;
14992;SDS011;7592;51.088;13.732;2023-08-17T04:11:34;8.43;;;7.63;;
14992;SDS011;7592;51.088;13.732;2023-08-17T04:16:27;7.93;;;7.37;;
14992;SDS011;7592;51.088;13.732;2023-08-17T04:21:20;8.17;;;7.57;;
14992;SDS011;7592;51.088;13.732;2023-08-17T04:26:12;7.67;;;7.07;;
14992;SDS011;7592;51.088;13.732;2023-08-17T04:31:04;7.50;;;6.93;;
14992;SDS011;7592;51.088;13.732;2023-08-17T04:36:00;7.10;;;6.60;;
14992;SDS011;7592;51.088;13.732;2023-08-17T04:40:52;6.80;;;6.30;;
14992;SDS011;7592;51.088;13.732;2023-08-17T04:45:45;8.00;;;7.20;;
14992;SDS011;7592;51.088;13.732;2023-08-17T04:50:40;7.83;;;7.17;;
14992;SDS011;7592;51.088;13.732;2023-08-17T04:55:32;8.20;;;7.47;;
14992;SDS011;7592;51.088;13.732;2023-08-17T05:00:25;8.83;;;8.07;;
14992;SDS011;7592;51.088;13.732;2023-08-17T05:05:20;7.87;;;7.07;;
14992;SDS011;7592;51.088;13.732;2023-08-17T05:10:13;8.60;;;7.90;;
14992;SDS011;7592;51.088;13.732;2023-08-17T05:15:06;8.07;;;7.33;;
14992;SDS011;7592;51.088;13.732;2023-08-17T05:20:03;9.77;;;7.77;;
14992;SDS011;7592;51.088;13.732;2023-08-17T05:24:56;7.87;;;7.17;;
14992;SDS011;7592;51.088;13.732;2023-08-17T05:29:48;8.20;;;7.47;;
14992;SDS011;7592;51.088;13.732;2023-08-17T05:34:41;7.77;;;7.10;;
14992;SDS011;7592;51.088;13.732;2023-08-17T05:39:34;8.50;;;7.80;;
14992;SDS011;7592;51.088;13.732;2023-08-17T05:44:27;7.30;;;6.70;;
14992;SDS011;7592;51.088;13.732;2023-08-17T05:49:19;6.40;;;5.97;;
14992;SDS011;7592;51.088;13.732;2023-08-17T05:54:11;6.73;;;5.60;;
14992;SDS011;7592;51.088;13.732;2023-08-17T05:59:04;10.33;;;6.13;;
14992;SDS011;7592;51.088;13.732;2023-08-17T06:03:56;10.33;;;7.70;;
14992;SDS011;7592;51.088;13.732;2023-08-17T06:08:48;6.83;;;6.10;;
14992;SDS011;7592;51.088;13.732;2023-08-17T06:13:40;6.33;;;5.83;;
14992;SDS011;7592;51.088;13.732;2023-08-17T06:18:32;6.70;;;6.20;;
14992;SDS011;7592;51.088;13.732;2023-08-17T06:23:25;5.97;;;5.10;;
14992;SDS011;7592;51.088;13.732;2023-08-17T06:28:17;8.00;;;7.15;;
14992;SDS011;7592;51.088;13.732;2023-08-17T06:33:09;7.38;;;6.78;;
14992;SDS011;7592;51.088;13.732;2023-08-17T06:38:01;6.78;;;6.15;;
14992;SDS011;7592;51.088;13.732;2023-08-17T06:42:54;7.15;;;6.32;;
14992;SDS011;7592;51.088;13.732;2023-08-17T06:47:46;8.55;;;6.70;;
14992;SDS011;7592;51.088;13.732;2023-08-17T06:52:40;6.80;;;5.93;;
14992;SDS011;7592;51.088;13.732;2023-08-17T06:57:32;7.53;;;6.82;;
14992;SDS011;7592;51.088;13.732;2023-08-17T07:02:24;6.07;;;5.50;;
14992;SDS011;7592;51.088;13.732;2023-08-17T07:07:23;6.47;;;5.88;;
14992;SDS011;7592;51.088;13.732;2023-08-17T07:12:16;7.22;;;6.53;;
14992;SDS011;7592;51.088;13.732;2023-08-17T07:17:08;7.95;;;7.30;;
14992;SDS011;7592;51.088;13.732;2023-08-17T07:22:00;7.78;;;7.20;;
14992;SDS011;7592;51.088;13.732;2023-08-17T07:26:52;7.47;;;6.78;;
14992;SDS011;7592;51.088;13.732;2023-08-17T07:31:44;6.50;;;5.97;;
14992;SDS011;7592;51.088;13.732;2023-08-17T07:36:37;8.05;;;6.70;;
14992;SDS011;7592;51.088;13.732;2023-08-17T07:41:29;6.78;;;6.13;;
14992;SDS011;7592;51.088;13.732;2023-08-17T07:46:21;6.10;;;5.65;;
14992;SDS011;7592;51.088;13.732;2023-08-17T07:51:13;8.55;;;6.80;;
14992;SDS011;7592;51.088;13.732;2023-08-17T07:56:05;6.60;;;5.97;;
14992;SDS011;7592;51.088;13.732;2023-08-17T08:00:58;7.13;;;6.50;;
14992;SDS011;7592;51.088;13.732;2023-08-17T08:05:52;7.10;;;6.68;;
14992;SDS011;7592;51.088;13.732;2023-08-17T08:10:45;7.30;;;6.68;;
14992;SDS011;7592;51.088;13.732;2023-08-17T08:15:37;6.93;;;6.32;;
14992;SDS011;7592;51.088;13.732;2023-08-17T08:20:29;5.88;;;5.57;;
14992;SDS011;7592;51.088;13.732;2023-08-17T08:25:21;6.68;;;6.18;;
14992;SDS011;7592;51.088;13.732;2023-08-17T08:30:13;5.28;;;4.68;;
14992;SDS011;7592;51.088;13.732;2023-08-17T08:35:05;5.70;;;5.28;;
14992;SDS011;7592;51.088;13.732;2023-08-17T08:39:57;7.30;;;6.70;;
14992;SDS011;7592;51.088;13.732;2023-08-17T08:44:50;6.22;;;5.53;;
14992;SDS011;7592;51.088;13.732;2023-08-17T08:54:50;5.53;;;4.93;;
14992;SDS011;7592;51.088;13.732;2023-08-17T08:59:46;6.68;;;5.18;;
14992;SDS011;7592;51.088;13.732;2023-08-17T09:04:39;4.82;;;4.63;;
14992;SDS011;7592;51.088;13.732;2023-08-17T09:09:31;5.15;;;4.95;;
14992;SDS011;7592;51.088;13.732;2023-08-17T09:14:24;4.47;;;4.25;;
14992;SDS011;7592;51.088;13.732;2023-08-17T09:19:17;6.10;;;5.07;;
14992;SDS011;7592;51.088;13.732;2023-08-17T09:24:10;4.07;;;3.78;;
14992;SDS011;7592;51.088;13.732;2023-08-17T09:29:25;4.10;;;3.90;;
14992;SDS011;7592;51.088;13.732;2023-08-17T09:34:17;6.32;;;4.85;;
14992;SDS011;7592;51.088;13.732;2023-08-17T09:39:10;4.15;;;3.85;;
14992;SDS011;7592;51.088;13.732;2023-08-17T09:44:06;4.93;;;4.53;;
14992;SDS011;7592;51.088;13.732;2023-08-17T09:48:58;4.53;;;4.22;;
14992;SDS011;7592;51.088;13.732;2023-08-17T09:53:53;5.90;;;5.45;;
14992;SDS011;7592;51.088;13.732;2023-08-17T09:58:50;5.38;;;4.88;;
14992;SDS011;7592;51.088;13.732;2023-08-17T10:03:44;5.32;;;4.90;;
14992;SDS011;7592;51.088;13.732;2023-08-17T10:08:43;5.13;;;4.63;;
14992;SDS011;7592;51.088;13.732;2023-08-17T10:18:48;5.75;;;5.45;;
14992;SDS011;7592;51.088;13.732;2023-08-17T10:23:46;6.20;;;5.70;;
14992;SDS011;7592;51.088;13.732;2023-08-17T10:28:38;5.30;;;4.90;;
14992;SDS011;7592;51.088;13.732;2023-08-17T10:33:31;6.30;;;5.97;;
14992;SDS011;7592;51.088;13.732;2023-08-17T10:38:23;6.47;;;6.03;;
14992;SDS011;7592;51.088;13.732;2023-08-17T10:43:16;5.88;;;5.47;;
14992;SDS011;7592;51.088;13.732;2023-08-17T10:53:08;6.70;;;6.35;;
14992;SDS011;7592;51.088;13.732;2023-08-17T10:58:02;7.00;;;6.50;;
14992;SDS011;7592;51.088;13.732;2023-08-17T11:02:56;6.90;;;6.28;;
14992;SDS011;7592;51.088;13.732;2023-08-17T11:07:51;6.40;;;6.00;;
14992;SDS011;7592;51.088;13.732;2023-08-17T11:12:43;6.47;;;5.88;;
14992;SDS011;7592;51.088;13.732;2023-08-17T11:17:35;6.53;;;6.13;;
14992;SDS011;7592;51.088;13.732;2023-08-17T11:22:28;7.22;;;6.68;;
14992;SDS011;7592;51.088;13.732;2023-08-17T11:27:20;6.68;;;6.20;;
14992;SDS011;7592;51.088;13.732;2023-08-17T11:32:15;6.22;;;5.82;;
14992;SDS011;7592;51.088;13.732;2023-08-17T11:37:10;7.10;;;6.30;;
14992;SDS011;7592;51.088;13.732;2023-08-17T11:42:03;7.63;;;7.13;;
14992;SDS011;7592;51.088;13.732;2023-08-17T11:46:55;7.68;;;7.03;;
14992;SDS011;7592;51.088;13.732;2023-08-17T11:51:48;9.73;;;7.40;;
14992;SDS011;7592;51.088;13.732;2023-08-17T11:56:42;7.35;;;6.90;;
14992;SDS011;7592;51.088;13.732;2023-08-17T12:01:34;7.38;;;6.95;;
14992;SDS011;7592;51.088;13.732;2023-08-17T12:06:27;7.22;;;6.65;;
14992;SDS011;7592;51.088;13.732;2023-08-17T12:11:20;7.55;;;6.95;;
14992;SDS011;7592;51.088;13.732;2023-08-17T12:16:16;8.48;;;7.78;;
14992;SDS011;7592;51.088;13.732;2023-08-17T12:21:09;7.38;;;6.97;;
14992;SDS011;7592;51.088;13.732;2023-08-17T12:26:02;7.20;;;6.70;;
14992;SDS011;7592;51.088;13.732;2023-08-17T12:31:01;8.10;;;7.03;;
14992;SDS011;7592;51.088;13.732;2023-08-17T12:35:55;7.97;;;7.30;;
14992;SDS011;7592;51.088;13.732;2023-08-17T12:40:47;15.23;;;7.32;;
14992;SDS011;7592;51.088;13.732;2023-08-17T12:45:39;7.93;;;6.65;;
14992;SDS011;7592;51.088;13.732;2023-08-17T12:50:31;7.38;;;6.82;;
14992;SDS011;7592;51.088;13.732;2023-08-17T12:55:24;7.05;;;6.55;;
14992;SDS011;7592;51.088;13.732;2023-08-17T13:00:16;8.73;;;5.80;;
14992;SDS011;7592;51.088;13.732;2023-08-17T13:05:08;6.70;;;6.00;;
14992;SDS011;7592;51.088;13.732;2023-08-17T13:10:00;6.45;;;5.82;;
14992;SDS011;7592;51.088;13.732;2023-08-17T13:14:52;6.72;;;6.20;;
14992;SDS011;7592;51.088;13.732;2023-08-17T13:19:45;6.78;;;6.10;;
14992;SDS011;7592;51.088;13.732;2023-08-17T13:24:37;7.35;;;6.47;;
14992;SDS011;7592;51.088;13.732;2023-08-17T13:29:29;6.05;;;5.47;;
14992;SDS011;7592;51.088;13.732;2023-08-17T13:34:21;6.85;;;6.22;;
14992;SDS011;7592;51.088;13.732;2023-08-17T13:39:14;7.13;;;6.45;;
14992;SDS011;7592;51.088;13.732;2023-08-17T13:44:06;6.20;;;5.80;;
14992;SDS011;7592;51.088;13.732;2023-08-17T13:48:58;6.53;;;6.13;;
14992;SDS011;7592;51.088;13.732;2023-08-17T13:53:53;6.97;;;6.30;;
14992;SDS011;7592;51.088;13.732;2023-08-17T13:58:45;6.72;;;6.13;;
14992;SDS011;7592;51.088;13.732;2023-08-17T14:03:38;6.60;;;6.18;;
14992;SDS011;7592;51.088;13.732;2023-08-17T14:08:30;7.25;;;6.63;;
14992;SDS011;7592;51.088;13.732;2023-08-17T14:13:22;6.68;;;6.18;;
14992;SDS011;7592;51.088;13.732;2023-08-17T14:18:14;7.47;;;6.75;;
14992;SDS011;7592;51.088;13.732;2023-08-17T14:23:07;6.55;;;6.00;;
14992;SDS011;7592;51.088;13.732;2023-08-17T14:27:59;7.15;;;6.53;;
14992;SDS011;7592;51.088;13.732;2023-08-17T14:32:51;7.00;;;6.35;;
14992;SDS011;7592;51.088;13.732;2023-08-17T14:37:43;6.97;;;6.32;;
14992;SDS011;7592;51.088;13.732;2023-08-17T14:42:36;7.07;;;6.47;;
14992;SDS011;7592;51.088;13.732;2023-08-17T14:47:28;6.78;;;6.32;;
14992;SDS011;7592;51.088;13.732;2023-08-17T14:52:21;8.05;;;7.50;;
14992;SDS011;7592;51.088;13.732;2023-08-17T14:57:13;7.15;;;6.57;;
14992;SDS011;7592;51.088;13.732;2023-08-17T15:02:07;6.82;;;6.32;;
14992;SDS011;7592;51.088;13.732;2023-08-17T15:07:01;11.70;;;6.63;;
14992;SDS011;7592;51.088;13.732;2023-08-17T15:12:01;6.32;;;5.93;;
14992;SDS011;7592;51.088;13.732;2023-08-17T15:16:57;7.00;;;6.50;;
14992;SDS011;7592;51.088;13.732;2023-08-17T15:21:49;7.25;;;6.55;;
14992;SDS011;7592;51.088;13.732;2023-08-17T15:26:42;7.20;;;6.60;;
14992;SDS011;7592;51.088;13.732;2023-08-17T15:31:34;9.40;;;6.85;;
14992;SDS011;7592;51.088;13.732;2023-08-17T15:36:26;6.65;;;6.05;;
14992;SDS011;7592;51.088;13.732;2023-08-17T15:41:18;7.63;;;7.00;;
14992;SDS011;7592;51.088;13.732;2023-08-17T15:46:10;7.60;;;7.00;;
14992;SDS011;7592;51.088;13.732;2023-08-17T15:51:03;8.60;;;7.93;;
14992;SDS011;7592;51.088;13.732;2023-08-17T15:55:55;9.25;;;7.80;;
14992;SDS011;7592;51.088;13.732;2023-08-17T16:00:47;8.13;;;7.32;;
14992;SDS011;7592;51.088;13.732;2023-08-17T16:05:39;8.63;;;7.78;;
14992;SDS011;7592;51.088;13.732;2023-08-17T16:10:31;7.70;;;7.22;;
14992;SDS011;7592;51.088;13.732;2023-08-17T16:15:26;8.68;;;7.97;;
14992;SDS011;7592;51.088;13.732;2023-08-17T16:20:18;8.68;;;7.85;;
14992;SDS011;7592;51.088;13.732;2023-08-17T16:25:10;8.98;;;8.38;;
14992;SDS011;7592;51.088;13.732;2023-08-17T16:30:02;9.20;;;8.23;;
14992;SDS011;7592;51.088;13.732;2023-08-17T16:34:55;10.50;;;9.50;;
14992;SDS011;7592;51.088;13.732;2023-08-17T16:39:48;8.27;;;7.57;;
14992;SDS011;7592;51.088;13.732;2023-08-17T16:44:40;9.50;;;8.70;;
14992;SDS011;7592;51.088;13.732;2023-08-17T16:49:32;7.00;;;6.50;;
14992;SDS011;7592;51.088;13.732;2023-08-17T16:54:24;10.30;;;8.43;;
14992;SDS011;7592;51.088;13.732;2023-08-17T16:59:16;8.60;;;7.90;;
14992;SDS011;7592;51.088;13.732;2023-08-17T17:04:08;10.50;;;8.17;;
14992;SDS011;7592;51.088;13.732;2023-08-17T17:09:01;8.20;;;7.60;;
14992;SDS011;7592;51.088;13.732;2023-08-17T17:13:54;8.00;;;7.40;;
14992;SDS011;7592;51.088;13.732;2023-08-17T17:18:49;7.70;;;6.97;;
14992;SDS011;7592;51.088;13.732;2023-08-17T17:23:42;8.30;;;7.70;;
14992;SDS011;7592;51.088;13.732;2023-08-17T17:28:34;10.70;;;9.90;;
14992;SDS011;7592;51.088;13.732;2023-08-17T17:33:26;11.73;;;10.53;;
14992;SDS011;7592;51.088;13.732;2023-08-17T17:38:18;13.77;;;12.70;;
14992;SDS011;7592;51.088;13.732;2023-08-17T17:43:11;11.90;;;10.80;;
14992;SDS011;7592;51.088;13.732;2023-08-17T17:48:03;9.73;;;8.93;;
14992;SDS011;7592;51.088;13.732;2023-08-17T17:52:56;9.00;;;8.10;;
14992;SDS011;7592;51.088;13.732;2023-08-17T17:57:48;10.57;;;9.67;;
14992;SDS011;7592;51.088;13.732;2023-08-17T18:02:40;10.63;;;9.73;;
14992;SDS011;7592;51.088;13.732;2023-08-17T18:07:32;8.37;;;7.57;;
14992;SDS011;7592;51.088;13.732;2023-08-17T18:12:24;9.23;;;8.43;;
14992;SDS011;7592;51.088;13.732;2023-08-17T18:17:20;8.03;;;7.27;;
14992;SDS011;7592;51.088;13.732;2023-08-17T18:22:12;7.43;;;6.87;;
14992;SDS011;7592;51.088;13.732;2023-08-17T18:27:04;8.43;;;7.80;;
14992;SDS011;7592;51.088;13.732;2023-08-17T18:31:56;8.03;;;7.30;;
14992;SDS011;7592;51.088;13.732;2023-08-17T18:36:48;7.63;;;6.90;;
14992;SDS011;7592;51.088;13.732;2023-08-17T18:41:41;10.20;;;8.00;;
14992;SDS011;7592;51.088;13.732;2023-08-17T18:46:33;7.67;;;6.97;;
14992;SDS011;7592;51.088;13.732;2023-08-17T18:51:25;6.30;;;5.73;;
14992;SDS011;7592;51.088;13.732;2023-08-17T18:56:17;6.60;;;6.20;;
14992;SDS011;7592;51.088;13.732;2023-08-17T19:01:09;6.10;;;5.60;;
14992;SDS011;7592;51.088;13.732;2023-08-17T19:06:01;10.13;;;7.60;;
14992;SDS011;7592;51.088;13.732;2023-08-17T19:10:53;5.33;;;5.03;;
14992;SDS011;7592;51.088;13.732;2023-08-17T19:15:47;5.93;;;5.60;;
14992;SDS011;7592;51.088;13.732;2023-08-17T19:20:40;6.03;;;5.63;;
14992;SDS011;7592;51.088;13.732;2023-08-17T19:25:32;5.97;;;5.50;;
14992;SDS011;7592;51.088;13.732;2023-08-17T19:30:24;6.13;;;5.70;;
14992;SDS011;7592;51.088;13.732;2023-08-17T19:35:16;6.83;;;5.90;;
14992;SDS011;7592;51.088;13.732;2023-08-17T19:40:08;6.00;;;5.53;;
14992;SDS011;7592;51.088;13.732;2023-08-17T19:45:01;6.77;;;6.10;;
14992;SDS011;7592;51.088;13.732;2023-08-17T19:49:53;6.00;;;5.57;;
14992;SDS011;7592;51.088;13.732;2023-08-17T19:54:45;6.53;;;6.03;;
14992;SDS011;7592;51.088;13.732;2023-08-17T19:59:43;6.43;;;6.00;;
14992;SDS011;7592;51.088;13.732;2023-08-17T20:04:36;6.23;;;5.63;;
14992;SDS011;7592;51.088;13.732;2023-08-17T20:09:28;5.90;;;5.47;;
14992;SDS011;7592;51.088;13.732;2023-08-17T20:14:20;6.43;;;5.87;;
14992;SDS011;7592;51.088;13.732;2023-08-17T20:19:13;4.83;;;4.53;;
14992;SDS011;7592;51.088;13.732;2023-08-17T20:24:06;5.07;;;4.77;;
14992;SDS011;7592;51.088;13.732;2023-08-17T20:28:59;6.07;;;4.33;;
14992;SDS011;7592;51.088;13.732;2023-08-17T20:33:51;7.57;;;6.30;;
14992;SDS011;7592;51.088;13.732;2023-08-17T20:38:44;5.37;;;4.87;;
14992;SDS011;7592;51.088;13.732;2023-08-17T20:43:37;5.23;;;4.83;;
14992;SDS011;7592;51.088;13.732;2023-08-17T20:48:29;4.90;;;4.60;;
14992;SDS011;7592;51.088;13.732;2023-08-17T20:53:21;6.13;;;5.53;;
14992;SDS011;7592;51.088;13.732;2023-08-17T20:58:13;6.03;;;5.50;;
14992;SDS011;7592;51.088;13.732;2023-08-17T21:03:05;6.90;;;6.20;;
14992;SDS011;7592;51.088;13.732;2023-08-17T21:07:58;6.87;;;5.70;;
14992;SDS011;7592;51.088;13.732;2023-08-17T21:12:51;7.30;;;6.63;;
14992;SDS011;7592;51.088;13.732;2023-08-17T21:17:44;5.37;;;4.97;;
14992;SDS011;7592;51.088;13.732;2023-08-17T21:22:37;8.37;;;5.47;;
14992;SDS011;7592;51.088;13.732;2023-08-17T21:27:33;6.03;;;5.37;;
14992;SDS011;7592;51.088;13.732;2023-08-17T21:32:25;6.17;;;5.57;;
14992;SDS011;7592;51.088;13.732;2023-08-17T21:37:23;5.60;;;5.10;;
14992;SDS011;7592;51.088;13.732;2023-08-17T21:42:18;5.90;;;5.50;;
14992;SDS011;7592;51.088;13.732;2023-08-17T21:47:12;8.40;;;7.73;;
14992;SDS011;7592;51.088;13.732;2023-08-17T21:52:04;9.30;;;8.40;;
14992;SDS011;7592;51.088;13.732;2023-08-17T21:56:56;9.50;;;8.80;;
14992;SDS011;7592;51.088;13.732;2023-08-17T22:01:48;6.57;;;5.97;;
14992;SDS011;7592;51.088;13.732;2023-08-17T22:06:41;7.80;;;7.10;;
14992;SDS011;7592;51.088;13.732;2023-08-17T22:11:33;7.43;;;6.93;;
14992;SDS011;7592;51.088;13.732;2023-08-17T22:16:25;8.00;;;7.40;;
14992;SDS011;7592;51.088;13.732;2023-08-17T22:21:18;6.60;;;6.00;;
14992;SDS011;7592;51.088;13.732;2023-08-17T22:26:10;7.60;;;7.00;;
14992;SDS011;7592;51.088;13.732;2023-08-17T22:31:02;7.07;;;6.43;;
14992;SDS011;7592;51.088;13.732;2023-08-17T22:35:55;8.73;;;6.33;;
14992;SDS011;7592;51.088;13.732;2023-08-17T22:40:47;6.50;;;6.10;;
14992;SDS011;7592;51.088;13.732;2023-08-17T22:45:39;6.07;;;5.67;;
14992;SDS011;7592;51.088;13.732;2023-08-17T22:50:31;6.50;;;5.97;;
14992;SDS011;7592;51.088;13.732;2023-08-17T22:55:24;6.50;;;6.07;;
14992;SDS011;7592;51.088;13.732;2023-08-17T23:00:16;6.97;;;6.27;;
14992;SDS011;7592;51.088;13.732;2023-08-17T23:05:10;6.17;;;5.77;;
14992;SDS011;7592;51.088;13.732;2023-08-17T23:10:02;9.67;;;6.83;;
14992;SDS011;7592;51.088;13.732;2023-08-17T23:14:54;6.60;;;6.10;;
14992;SDS011;7592;51.088;13.732;2023-08-17T23:19:46;7.10;;;6.60;;
14992;SDS011;7592;51.088;13.732;2023-08-17T23:24:38;6.73;;;6.33;;
14992;SDS011;7592;51.088;13.732;2023-08-17T23:29:31;7.53;;;6.83;;
14992;SDS011;7592;51.088;13.732;2023-08-17T23:34:24;8.60;;;7.97;;
14992;SDS011;7592;51.088;13.732;2023-08-17T23:39:16;8.47;;;6.30;;
14992;SDS011;7592;51.088;13.732;2023-08-17T23:44:14;7.17;;;6.33;;
14992;SDS011;7592;51.088;13.732;2023-08-17T23:49:08;7.47;;;6.87;;
14992;SDS011;7592;51.088;13.732;2023-08-17T23:54:00;8.17;;;7.60;;
14992;SDS011;7592;51.088;13.732;2023-08-17T23:58:53;8.63;;;8.03;;
